Time;durP1;ratioP1;P1;durP2;ratioP2;P2;SDS_P1;SDS_P2;PMS_P1;PMS_P2;Temp;Humidity;BMP_temperature;BMP_pressure;BME280_temperature;BME280_humidity;BME280_pressure;Samples;Min_cycle;Max_cycle;Signal;HPM_P1;HPM_P2
2022/08/19 04:00:13;;;;;;;23.65;19.50;;;19.70;99.90;;;;;;6144503;22;21187;31
2022/08/19 04:02:38;;;;;;;25.60;19.92;;;19.70;99.90;;;;;;5008406;28;20050;-71
2022/08/19 04:05:05;;;;;;;25.40;19.73;;;19.70;99.90;;;;;;5014204;28;20089;-73
2022/08/19 04:07:30;;;;;;;24.80;19.67;;;19.80;99.90;;;;;;5014680;28;20113;-73
2022/08/19 04:09:56;;;;;;;26.05;19.92;;;19.80;99.90;;;;;;5014458;28;20451;-73
2022/08/19 04:12:21;;;;;;;25.35;19.80;;;19.80;99.90;;;;;;5014062;28;20093;-73
2022/08/19 04:14:47;;;;;;;26.02;19.65;;;19.70;99.90;;;;;;5014310;28;20041;-72
2022/08/19 04:17:14;;;;;;;24.05;20.05;;;19.70;99.90;;;;;;5012374;28;20042;-72
2022/08/19 04:19:39;;;;;;;27.55;20.13;;;19.70;99.90;;;;;;5013965;28;20034;-72
2022/08/19 04:22:06;;;;;;;27.00;20.55;;;19.70;99.90;;;;;;5013550;28;20043;-72
2022/08/19 04:24:33;;;;;;;27.25;20.63;;;19.70;99.90;;;;;;5012731;28;20030;-72
2022/08/19 04:27:00;;;;;;;25.52;20.10;;;19.70;99.90;;;;;;5017112;28;20046;-72
2022/08/19 04:29:26;;;;;;;24.85;19.98;;;19.70;99.90;;;;;;5017074;28;20537;-72
2022/08/19 04:31:54;;;;;;;26.50;21.00;;;19.70;99.90;;;;;;5016693;28;20515;-72
2022/08/19 04:34:22;;;;;;;23.45;20.02;;;19.70;99.90;;;;;;5016823;28;20030;-72
2022/08/19 04:36:50;;;;;;;28.83;20.70;;;19.70;99.90;;;;;;5016966;28;20110;-72
2022/08/19 04:39:19;;;;;;;25.42;20.17;;;19.60;99.90;;;;;;5015387;28;20062;-72
2022/08/19 04:44:31;;;;;;;29.35;20.20;;;19.60;99.90;;;;;;5017142;28;20038;-72
2022/08/19 04:46:57;;;;;;;26.20;19.27;;;19.70;99.90;;;;;;5017191;28;20038;-72
2022/08/19 04:49:23;;;;;;;26.05;20.40;;;19.60;99.90;;;;;;5017000;28;20031;-71
2022/08/19 04:51:52;;;;;;;26.70;19.95;;;19.60;99.90;;;;;;5016541;28;20038;-71
2022/08/19 04:54:20;;;;;;;30.17;20.58;;;19.70;99.90;;;;;;5016513;28;20392;-72
2022/08/19 04:56:45;;;;;;;25.92;20.15;;;19.70;99.90;;;;;;5016677;28;20039;-72
2022/08/19 04:59:11;;;;;;;25.88;21.38;;;19.70;99.90;;;;;;5015028;28;20034;-72
2022/08/19 05:01:37;;;;;;;25.90;19.67;;;19.70;99.90;;;;;;5014343;28;20070;-72
2022/08/19 05:04:05;;;;;;;26.75;21.15;;;19.80;99.90;;;;;;5014764;28;20039;-72
2022/08/19 05:06:33;;;;;;;24.02;20.02;;;19.80;99.90;;;;;;5016356;28;20035;-72
2022/08/19 05:09:00;;;;;;;27.60;21.20;;;19.80;99.90;;;;;;5015300;28;20037;-72
2022/08/19 05:11:29;;;;;;;27.33;21.02;;;19.80;99.90;;;;;;5023246;28;20507;-72
2022/08/19 05:13:56;;;;;;;27.45;20.35;;;19.90;99.90;;;;;;5006453;28;20038;-72
2022/08/19 05:16:23;;;;;;;27.05;20.00;;;19.90;99.90;;;;;;5010422;28;20035;-71
2022/08/19 05:24:20;;;;;;;24.70;19.80;;;20.00;99.90;;;;;;5016201;28;20038;-72
2022/08/19 05:26:48;;;;;;;26.83;19.10;;;20.10;99.90;;;;;;5016559;28;20042;-73
2022/08/19 05:29:16;;;;;;;27.77;20.50;;;20.20;99.90;;;;;;5016256;28;20038;-72
2022/08/19 05:31:42;;;;;;;26.83;19.83;;;20.30;99.90;;;;;;5015711;28;20061;-72
2022/08/19 05:34:09;;;;;;;24.65;19.25;;;20.30;99.90;;;;;;5030817;28;20034;-72
2022/08/19 05:36:40;;;;;;;28.98;20.77;;;20.40;99.90;;;;;;5014524;28;20034;-72
2022/08/19 05:39:07;;;;;;;24.75;18.85;;;20.40;99.90;;;;;;5016042;28;20038;-73
2022/08/19 05:41:33;;;;;;;25.65;18.83;;;20.40;99.90;;;;;;5030774;28;20042;-72
2022/08/19 05:44:06;;;;;;;26.67;19.63;;;20.50;99.90;;;;;;5016259;28;20508;-73
2022/08/19 05:46:32;;;;;;;27.15;19.27;;;20.50;99.90;;;;;;5017448;28;20065;-71
2022/08/19 05:48:58;;;;;;;26.95;18.35;;;20.50;99.90;;;;;;5016213;28;20555;-73
2022/08/19 05:51:24;;;;;;;26.27;19.00;;;20.50;99.90;;;;;;5015901;28;20085;-75
2022/08/19 05:53:51;;;;;;;22.23;17.25;;;20.50;99.90;;;;;;5016127;28;20092;-74
2022/08/19 05:56:17;;;;;;;23.65;18.35;;;20.60;99.90;;;;;;5030767;28;20034;-76
2022/08/19 05:58:44;;;;;;;23.23;18.58;;;20.60;99.90;;;;;;5015767;28;20041;-75
2022/08/19 06:01:18;;;;;;;22.20;17.77;;;20.60;99.90;;;;;;5015386;28;20074;-72
2022/08/19 06:03:44;;;;;;;22.77;18.13;;;20.70;99.90;;;;;;5016016;28;20035;-81
2022/08/19 06:06:14;;;;;;;23.05;17.90;;;20.60;99.90;;;;;;5015391;28;20037;-73
2022/08/19 06:08:42;;;;;;;24.30;18.65;;;20.60;99.90;;;;;;5015936;28;20066;-73
2022/08/19 06:11:23;;;;;;;23.40;18.35;;;20.60;99.90;;;;;;5015898;28;20034;-71
2022/08/19 06:13:52;;;;;;;23.20;17.95;;;20.60;99.90;;;;;;5017259;28;20471;-76
2022/08/19 06:16:22;;;;;;;26.05;18.25;;;20.70;99.90;;;;;;5017048;28;20117;-73
2022/08/19 06:18:56;;;;;;;22.95;18.25;;;20.70;99.90;;;;;;5015455;28;20030;-73
2022/08/19 06:21:25;;;;;;;24.80;18.50;;;20.60;99.90;;;;;;5015416;28;20416;-71
2022/08/19 06:23:51;;;;;;;27.90;19.13;;;20.60;99.90;;;;;;5030427;28;20048;-72
2022/08/19 06:26:19;;;;;;;24.95;18.52;;;20.60;99.90;;;;;;5015520;28;20547;-73
2022/08/19 06:28:48;;;;;;;24.30;19.08;;;20.60;99.90;;;;;;5015716;28;20483;-73
2022/08/19 06:31:16;;;;;;;25.85;18.20;;;20.60;99.90;;;;;;5015139;28;20042;-73
2022/08/19 06:33:42;;;;;;;27.55;20.67;;;20.70;99.90;;;;;;5031016;28;20026;-74
2022/08/19 06:36:16;;;;;;;24.30;19.40;;;20.70;99.90;;;;;;5015673;28;20038;-73
2022/08/19 06:38:42;;;;;;;26.38;18.58;;;20.70;99.90;;;;;;5015550;28;20030;-73
2022/08/19 06:41:11;;;;;;;26.83;18.63;;;20.80;99.90;;;;;;5014453;28;20484;-74
2022/08/19 06:43:37;;;;;;;30.88;19.70;;;20.80;99.90;;;;;;5015055;28;20022;-73
2022/08/19 06:46:03;;;;;;;23.65;17.83;;;20.80;99.90;;;;;;5014819;28;20031;-74
2022/08/19 06:48:29;;;;;;;24.30;18.80;;;20.80;99.90;;;;;;5007415;28;20042;-73
2022/08/19 06:50:55;;;;;;;25.80;18.42;;;20.90;99.90;;;;;;5011415;28;20035;-75
2022/08/19 06:53:21;;;;;;;25.55;19.23;;;21.00;99.90;;;;;;5010123;28;20088;-74
2022/08/19 06:55:47;;;;;;;25.15;19.00;;;21.00;99.90;;;;;;5012321;28;20074;-74
2022/08/19 06:58:12;;;;;;;29.23;18.60;;;21.10;99.90;;;;;;5000945;28;20492;-75
2022/08/19 07:00:38;;;;;;;24.92;18.20;;;21.20;99.90;;;;;;5004778;28;20035;-75
2022/08/19 07:03:03;;;;;;;24.67;18.05;;;21.30;99.90;;;;;;5008004;28;20045;-74
2022/08/19 07:05:29;;;;;;;24.70;18.10;;;21.40;99.90;;;;;;4998203;28;20552;-74
2022/08/19 07:07:56;;;;;;;25.45;17.63;;;21.50;99.90;;;;;;5011377;28;20489;-74
2022/08/19 07:10:21;;;;;;;22.38;17.95;;;21.70;99.90;;;;;;5002106;28;20027;-74
2022/08/19 07:12:48;;;;;;;20.08;15.90;;;21.70;99.90;;;;;;5004483;28;20045;-74
2022/08/19 07:15:15;;;;;;;20.77;16.40;;;21.70;99.90;;;;;;5008839;28;20035;-74
2022/08/19 07:17:43;;;;;;;23.05;15.95;;;21.80;99.90;;;;;;4998493;28;20039;-75
2022/08/19 07:20:09;;;;;;;19.02;15.20;;;21.90;99.90;;;;;;5009151;28;20153;-74
2022/08/19 07:22:35;;;;;;;19.33;14.20;;;22.10;99.90;;;;;;5003686;28;20042;-74
2022/08/19 07:25:03;;;;;;;17.73;13.90;;;22.30;99.90;;;;;;5001518;28;20038;-74
2022/08/19 07:27:29;;;;;;;18.30;13.55;;;22.30;99.90;;;;;;5010949;28;20037;-75
2022/08/19 07:29:55;;;;;;;19.80;13.55;;;22.40;99.90;;;;;;4998363;28;20484;-76
2022/08/19 07:32:20;;;;;;;18.83;13.73;;;22.50;99.90;;;;;;5007454;28;20046;-75
2022/08/19 07:34:46;;;;;;;16.48;13.60;;;22.70;99.90;;;;;;5000002;28;20050;-74
2022/08/19 07:37:11;;;;;;;16.75;13.00;;;22.90;99.90;;;;;;5003461;28;20035;-75
2022/08/19 07:39:38;;;;;;;18.13;12.80;;;23.10;99.90;;;;;;5001474;28;20129;-73
2022/08/19 07:42:07;;;;;;;17.80;13.02;;;23.10;99.90;;;;;;5011934;28;20089;-73
2022/08/19 07:44:33;;;;;;;16.95;13.05;;;23.10;99.90;;;;;;5013643;28;20045;-73
2022/08/19 07:47:02;;;;;;;17.33;12.75;;;23.10;99.90;;;;;;5012129;28;20042;-73
2022/08/19 07:49:28;;;;;;;21.33;13.45;;;23.10;99.90;;;;;;5010253;28;20039;-73
2022/08/19 07:51:58;;;;;;;16.13;12.98;;;23.10;99.90;;;;;;5013890;28;20034;-74
2022/08/19 07:54:26;;;;;;;16.73;12.63;;;23.10;99.90;;;;;;4997682;28;20548;-74
2022/08/19 07:56:52;;;;;;;16.60;12.35;;;23.10;99.90;;;;;;4997373;28;20038;-75
2022/08/19 07:59:20;;;;;;;16.80;13.32;;;23.10;99.90;;;;;;5007126;28;20030;-75
2022/08/19 08:01:47;;;;;;;15.30;13.10;;;23.00;99.90;;;;;;5003082;28;20050;-74
2022/08/19 08:09:43;;;;;;;16.48;12.60;;;22.80;99.90;;;;;;5016092;28;20035;-75
2022/08/19 08:12:15;;;;;;;19.38;14.23;;;22.90;99.90;;;;;;5000464;28;20114;-74
2022/08/19 08:14:48;;;;;;;17.98;12.68;;;22.90;99.90;;;;;;5001371;28;20105;-74
2022/08/19 08:17:19;;;;;;;17.35;13.13;;;22.90;99.90;;;;;;5008405;28;20049;-74
2022/08/19 08:19:45;;;;;;;15.02;12.90;;;22.90;99.90;;;;;;5004797;28;20043;-73
2022/08/19 08:23:22;;;;;;;17.08;12.85;;;22.80;99.90;;;;;;5007062;28;20045;-73
2022/08/19 08:25:16;;;;;;;15.93;12.48;;;23.00;99.90;;;;;;5005418;28;20031;-74
2022/08/19 08:27:44;;;;;;;18.63;12.55;;;23.20;99.90;;;;;;5005313;28;20034;-74
2022/08/19 08:30:22;;;;;;;18.15;12.95;;;23.20;99.90;;;;;;5004807;28;20031;-73
2022/08/19 08:32:48;;;;;;;15.68;12.75;;;23.20;99.90;;;;;;5010021;28;20063;-73
2022/08/19 08:35:18;;;;;;;15.77;11.32;;;23.10;99.90;;;;;;5007675;28;20846;-73
2022/08/19 08:37:45;;;;;;;15.55;13.05;;;23.30;99.90;;;;;;5002464;28;20046;-75
2022/08/19 08:40:41;;;;;;;19.55;13.05;;;23.30;99.90;;;;;;5011503;28;20491;-74
2022/08/19 08:43:10;;;;;;;21.10;12.90;;;23.20;99.90;;;;;;5002063;28;20046;-74
2022/08/19 08:45:45;;;;;;;14.20;11.52;;;23.20;99.90;;;;;;5008372;28;20511;-73
2022/08/19 08:48:26;;;;;;;16.95;12.88;;;23.30;99.90;;;;;;5006279;28;20030;-73
2022/08/19 08:50:56;;;;;;;18.33;12.63;;;23.20;99.90;;;;;;5013378;28;20041;-78
2022/08/19 08:53:22;;;;;;;15.38;13.25;;;23.20;99.90;;;;;;5005816;28;20051;-73
2022/08/19 08:55:48;;;;;;;17.33;12.40;;;23.40;99.90;;;;;;5011268;28;20030;-74
2022/08/19 08:58:24;;;;;;;15.60;12.75;;;23.60;99.90;;;;;;5000108;28;20083;-74
2022/08/19 09:00:50;;;;;;;15.50;12.63;;;23.70;99.90;;;;;;5009793;28;20038;-74
2022/08/19 09:03:23;;;;;;;15.80;12.57;;;24.00;99.90;;;;;;5007866;28;20046;-75
2022/08/19 09:05:58;;;;;;;16.00;12.00;;;24.20;99.90;;;;;;5001758;28;20110;-74
2022/08/19 09:08:33;;;;;;;15.02;12.48;;;24.40;99.90;;;;;;5011043;28;20093;-74
2022/08/19 09:10:59;;;;;;;14.30;12.25;;;24.50;99.90;;;;;;5004236;28;20041;-73
2022/08/19 09:13:25;;;;;;;16.83;11.93;;;24.60;99.90;;;;;;5005150;28;20472;-74
2022/08/19 09:16:11;;;;;;;14.82;12.18;;;24.80;99.60;;;;;;5011457;28;20030;-75
2022/08/19 09:18:58;;;;;;;15.05;12.32;;;24.70;99.60;;;;;;5001708;28;20057;-74
2022/08/19 09:21:25;;;;;;;14.60;13.00;;;24.50;99.80;;;;;;5004684;28;20097;-74
2022/08/19 09:23:52;;;;;;;14.50;11.35;;;24.20;99.90;;;;;;5010116;28;20037;-74
2022/08/19 09:26:20;;;;;;;14.00;12.55;;;24.10;99.90;;;;;;4999679;28;20099;-74
2022/08/19 09:28:48;;;;;;;14.63;12.18;;;24.30;99.90;;;;;;5014595;28;20591;-73
2022/08/19 09:31:16;;;;;;;15.45;11.90;;;24.50;99.90;;;;;;5015546;28;20045;-73
2022/08/19 09:33:44;;;;;;;13.32;11.60;;;24.50;99.90;;;;;;5004409;28;20185;-73
2022/08/19 09:36:13;;;;;;;13.32;11.82;;;24.40;99.90;;;;;;5006130;28;20145;-73
2022/08/19 09:38:42;;;;;;;13.13;11.23;;;24.20;99.90;;;;;;5003598;28;20644;-74
2022/08/19 09:41:15;;;;;;;14.60;11.52;;;23.80;99.90;;;;;;5004126;28;20038;-73
2022/08/19 09:43:43;;;;;;;12.30;11.00;;;23.70;99.90;;;;;;5006419;28;20027;-73
2022/08/19 09:46:09;;;;;;;15.13;11.65;;;23.80;99.90;;;;;;5006569;28;20035;-73
2022/08/19 09:48:39;;;;;;;12.48;11.10;;;23.80;99.90;;;;;;5001932;28;20039;-73
2022/08/19 09:51:12;;;;;;;15.55;12.32;;;23.80;99.90;;;;;;5004788;28;20034;-73
2022/08/19 09:53:38;;;;;;;16.08;11.32;;;23.80;99.90;;;;;;5003573;28;20038;-73
2022/08/19 09:56:05;;;;;;;17.02;11.55;;;23.80;99.90;;;;;;5003026;28;20034;-74
2022/08/19 09:58:31;;;;;;;16.20;10.70;;;24.00;99.90;;;;;;5002048;28;20031;-74
2022/08/19 10:00:59;;;;;;;15.35;11.18;;;24.10;99.90;;;;;;5002373;28;20051;-73
2022/08/19 10:03:25;;;;;;;13.52;10.60;;;24.40;99.90;;;;;;5013961;28;20058;-73
2022/08/19 10:05:51;;;;;;;12.93;10.27;;;24.70;99.90;;;;;;5007876;28;20045;-73
2022/08/19 10:08:19;;;;;;;13.63;10.50;;;24.80;99.90;;;;;;5003284;28;20046;-73
2022/08/19 10:10:45;;;;;;;12.18;9.85;;;24.70;99.50;;;;;;5001199;28;20023;-74
2022/08/19 10:13:12;;;;;;;13.18;9.73;;;24.40;99.80;;;;;;5006973;28;20034;-74
2022/08/19 10:15:40;;;;;;;14.10;9.55;;;24.30;99.90;;;;;;5013516;28;20030;-74
2022/08/19 10:18:06;;;;;;;10.25;9.25;;;24.30;99.90;;;;;;5007486;28;20512;-74
2022/08/19 10:20:31;;;;;;;12.10;8.88;;;24.40;99.90;;;;;;5013674;28;20035;-74
2022/08/19 10:22:59;;;;;;;13.95;8.50;;;24.30;99.90;;;;;;5013006;28;20030;-75
2022/08/19 10:25:26;;;;;;;9.68;8.27;;;24.40;99.90;;;;;;5015039;28;20037;-75
2022/08/19 10:27:52;;;;;;;8.65;7.75;;;24.60;99.90;;;;;;5015949;28;20033;-75
2022/08/19 10:30:18;;;;;;;10.27;7.35;;;24.80;98.60;;;;;;5014295;28;20506;-78
2022/08/19 10:32:45;;;;;;;6.88;6.18;;;24.90;98.30;;;;;;5017370;28;20041;-78
2022/08/19 10:35:12;;;;;;;8.20;6.90;;;25.30;97.40;;;;;;5000086;28;20037;-76
2022/08/19 10:37:38;;;;;;;7.60;6.00;;;25.50;96.40;;;;;;5016847;28;20034;-76
2022/08/19 10:40:07;;;;;;;10.43;6.50;;;25.80;96.40;;;;;;5006457;28;20055;-75
2022/08/19 10:42:36;;;;;;;7.13;5.50;;;26.10;95.00;;;;;;5010320;28;20034;-74
2022/08/19 10:45:03;;;;;;;8.25;6.90;;;26.30;94.60;;;;;;5003860;28;20039;-74
2022/08/19 10:47:29;;;;;;;6.65;5.57;;;26.60;93.60;;;;;;5015225;28;20046;-77
2022/08/19 10:52:43;;;;;;;6.70;5.32;;;26.80;93.40;;;;;;5015195;28;20090;-73
2022/08/19 10:57:52;;;;;;;5.40;4.72;;;26.90;93.70;;;;;;5015369;28;20456;-73
2022/08/19 11:00:20;;;;;;;7.18;5.53;;;27.00;93.00;;;;;;5014479;28;20034;-73
2022/08/19 11:02:46;;;;;;;5.85;5.28;;;26.90;92.20;;;;;;5012413;28;20038;-73
2022/08/19 11:05:13;;;;;;;6.25;5.15;;;26.70;93.10;;;;;;5014497;28;20026;-73
2022/08/19 11:07:39;;;;;;;6.72;5.07;;;26.40;93.40;;;;;;5015011;28;20049;-73
2022/08/19 11:10:06;;;;;;;6.57;4.97;;;26.50;94.10;;;;;;5014659;28;20035;-74
2022/08/19 11:12:33;;;;;;;6.03;5.43;;;26.60;93.70;;;;;;4993464;28;20066;-74
2022/08/19 11:14:58;;;;;;;5.82;4.85;;;26.60;93.60;;;;;;4993412;28;20072;-74
2022/08/19 11:17:31;;;;;;;5.10;4.55;;;26.40;94.20;;;;;;4994996;28;20118;-73
2022/08/19 11:19:57;;;;;;;6.53;4.50;;;26.50;91.90;;;;;;4995982;28;20038;-73
2022/08/19 11:22:23;;;;;;;6.05;4.28;;;26.60;93.70;;;;;;4994396;28;20065;-74
2022/08/19 11:24:52;;;;;;;4.93;4.32;;;26.70;92.60;;;;;;4995105;28;20031;-73
2022/08/19 11:27:17;;;;;;;5.95;4.68;;;26.50;91.10;;;;;;5009441;28;20109;-74
2022/08/19 11:29:43;;;;;;;5.00;4.40;;;26.40;91.50;;;;;;5013532;28;20169;-81
2022/08/19 11:32:10;;;;;;;8.30;4.57;;;26.20;91.90;;;;;;5014117;28;20034;-74
2022/08/19 11:34:38;;;;;;;6.95;4.30;;;26.30;91.40;;;;;;5016296;28;20504;-74
2022/08/19 11:37:05;;;;;;;5.18;4.47;;;26.20;91.60;;;;;;5017661;28;20039;-74
2022/08/19 11:39:32;;;;;;;6.70;4.20;;;26.00;91.80;;;;;;5016299;28;20039;-73
2022/08/19 11:42:54;;;;;;;8.05;4.30;;;26.00;92.90;;;;;;5016046;28;20046;-74
2022/08/19 11:44:51;;;;;;;6.07;4.10;;;26.10;92.40;;;;;;5017305;28;20038;-74
2022/08/19 11:47:17;;;;;;;4.65;3.83;;;26.00;92.00;;;;;;5016449;28;20465;-74
2022/08/19 11:49:43;;;;;;;4.80;3.90;;;25.90;92.00;;;;;;5016308;28;20027;-74
2022/08/19 11:52:08;;;;;;;5.05;3.85;;;26.00;92.50;;;;;;5017991;28;20034;-74
2022/08/19 11:54:34;;;;;;;7.10;4.18;;;26.40;92.60;;;;;;5017718;28;20110;-75
2022/08/19 11:57:03;;;;;;;4.55;3.95;;;26.50;92.00;;;;;;5017772;28;20424;-74
2022/08/19 11:59:29;;;;;;;4.55;3.88;;;26.60;90.90;;;;;;5017601;28;20031;-75
2022/08/19 12:01:57;;;;;;;4.70;3.92;;;26.90;90.80;;;;;;5017359;28;20165;-74
2022/08/19 12:04:25;;;;;;;5.45;3.78;;;26.60;91.50;;;;;;5017161;28;20045;-75
2022/08/19 12:07:04;;;;;;;;;;;;;;;;;;;;;
2022/08/19 12:09:31;;;;;;;6.03;3.92;;;26.10;92.90;;;;;;5018110;28;41317;-74
2022/08/19 12:11:57;;;;;;;4.65;3.75;;;25.80;92.60;;;;;;5017574;28;20077;-73
2022/08/19 12:14:23;;;;;;;5.28;3.88;;;25.70;92.40;;;;;;5015898;28;20404;-74
2022/08/19 12:16:49;;;;;;;4.47;3.92;;;25.70;92.50;;;;;;5016276;28;20046;-72
2022/08/19 12:19:15;;;;;;;4.60;4.10;;;25.50;93.60;;;;;;5015830;28;20121;-72
2022/08/19 12:21:41;;;;;;;4.88;4.40;;;25.60;95.10;;;;;;5017027;28;20399;-76
2022/08/19 12:24:07;;;;;;;6.28;4.30;;;25.50;93.60;;;;;;5017232;28;20038;-71
2022/08/19 12:26:38;;;;;;;5.28;4.28;;;25.80;93.60;;;;;;5015596;28;20043;-72
2022/08/19 12:29:04;;;;;;;4.32;3.90;;;26.10;93.60;;;;;;5017393;28;20119;-73
2022/08/19 12:31:29;;;;;;;7.18;4.10;;;26.60;92.90;;;;;;5017137;28;20055;-71
2022/08/19 12:33:56;;;;;;;4.30;3.90;;;27.20;91.10;;;;;;5017159;28;20047;-71
2022/08/19 12:36:22;;;;;;;5.50;4.22;;;27.70;91.60;;;;;;5015418;28;20030;-72
2022/08/19 12:38:51;;;;;;;5.35;3.80;;;28.40;88.30;;;;;;5017039;28;20062;-71
2022/08/19 12:41:18;;;;;;;6.45;4.03;;;28.70;88.90;;;;;;5016735;28;20042;-71
2022/08/19 12:43:44;;;;;;;4.78;3.75;;;28.90;85.70;;;;;;5017304;28;20194;-72
2022/08/19 12:46:10;;;;;;;5.18;3.53;;;29.50;86.20;;;;;;5016376;28;20066;-72
2022/08/19 12:48:39;;;;;;;4.43;3.97;;;30.00;82.40;;;;;;5017433;28;20042;-72
2022/08/19 12:51:10;;;;;;;4.45;3.47;;;30.20;79.60;;;;;;5018030;28;20128;-72
2022/08/19 12:53:36;;;;;;;3.78;3.40;;;30.20;79.10;;;;;;5017759;28;20591;-72
2022/08/19 12:56:02;;;;;;;4.97;3.47;;;29.40;78.90;;;;;;5016926;28;20109;-72
2022/08/19 12:58:28;;;;;;;4.53;3.30;;;28.80;84.40;;;;;;5017016;28;20087;-71
2022/08/19 13:00:54;;;;;;;5.25;3.53;;;28.20;82.00;;;;;;5015248;28;20043;-71
2022/08/19 13:03:22;;;;;;;5.15;3.70;;;28.10;84.00;;;;;;5016916;28;20045;-69
2022/08/19 13:05:47;;;;;;;4.30;3.90;;;27.90;83.90;;;;;;5016092;28;20061;-69
2022/08/19 13:08:13;;;;;;;4.68;3.60;;;28.10;83.80;;;;;;5016829;28;20038;-69
2022/08/19 13:10:38;;;;;;;6.50;4.32;;;28.20;83.80;;;;;;5016551;28;20184;-69
2022/08/19 13:13:07;;;;;;;3.90;3.50;;;28.20;83.60;;;;;;5016829;28;20495;-69
2022/08/19 13:15:39;;;;;;;4.57;3.80;;;28.20;85.20;;;;;;5015074;28;20057;-69
2022/08/19 13:18:05;;;;;;;4.20;3.80;;;28.00;83.00;;;;;;5016396;28;20045;-69
2022/08/19 13:20:31;;;;;;;4.63;3.70;;;27.80;86.30;;;;;;5016516;28;20379;-71
2022/08/19 13:22:57;;;;;;;4.20;3.80;;;27.50;87.90;;;;;;5016507;28;20062;-71
2022/08/19 13:25:23;;;;;;;4.35;3.80;;;27.20;86.80;;;;;;5016288;28;20536;-70
2022/08/19 13:27:49;;;;;;;4.43;3.67;;;26.80;87.20;;;;;;5016747;28;20042;-79
2022/08/19 13:33:10;;;;;;;4.00;3.58;;;26.20;92.20;;;;;;5016217;28;20035;-69
2022/08/19 13:35:42;;;;;;;6.10;3.60;;;25.80;93.90;;;;;;5014638;28;20035;-72
2022/08/19 13:38:07;;;;;;;4.20;3.72;;;25.60;94.50;;;;;;5016221;28;20030;-69
2022/08/19 13:40:33;;;;;;;3.72;3.42;;;25.40;94.60;;;;;;5015810;28;20027;-71
2022/08/19 13:43:00;;;;;;;4.35;3.70;;;25.30;96.20;;;;;;5016339;28;20062;-71
2022/08/19 13:45:28;;;;;;;4.32;3.92;;;25.30;96.70;;;;;;5015531;28;20043;-72
2022/08/19 13:47:55;;;;;;;4.70;3.60;;;25.20;94.80;;;;;;5015871;28;20038;-70
2022/08/19 13:50:25;;;;;;;4.15;3.70;;;25.30;94.70;;;;;;5016234;28;20037;-71
2022/08/19 13:52:52;;;;;;;4.07;3.20;;;25.30;94.80;;;;;;5016606;28;20038;-71
2022/08/19 13:55:18;;;;;;;4.95;3.63;;;25.30;95.00;;;;;;5016765;28;20042;-71
2022/08/19 13:57:44;;;;;;;4.00;3.00;;;25.50;95.10;;;;;;5016225;28;20026;-71
2022/08/19 14:00:17;;;;;;;4.18;3.33;;;25.50;95.10;;;;;;5016191;28;20034;-73
2022/08/19 14:02:45;;;;;;;4.13;3.38;;;25.60;94.50;;;;;;5014496;28;20050;-73
2022/08/19 14:05:13;;;;;;;5.57;3.50;;;25.50;93.20;;;;;;5015531;28;20058;-73
2022/08/19 14:07:39;;;;;;;6.68;3.90;;;25.50;93.80;;;;;;5015391;28;20042;-72
2022/08/19 14:10:06;;;;;;;4.88;3.63;;;25.30;94.10;;;;;;5015732;28;20033;-72
2022/08/19 14:12:32;;;;;;;4.60;4.00;;;25.30;93.90;;;;;;5015014;28;20108;-73
2022/08/19 14:14:58;;;;;;;6.65;3.80;;;25.20;94.30;;;;;;5015277;28;20125;-71
2022/08/19 14:17:24;;;;;;;4.20;3.53;;;25.20;92.80;;;;;;5015595;28;20513;-71
2022/08/19 14:19:56;;;;;;;4.72;3.55;;;25.10;93.80;;;;;;5015679;28;20027;-73
2022/08/19 14:22:21;;;;;;;4.97;3.97;;;24.90;93.20;;;;;;5015427;28;20037;-72
2022/08/19 14:24:47;;;;;;;5.18;3.80;;;24.80;93.00;;;;;;5016242;28;20034;-78
2022/08/19 14:27:13;;;;;;;4.05;3.65;;;24.70;94.10;;;;;;5015483;28;20799;-74
2022/08/19 14:29:38;;;;;;;13.07;4.97;;;24.50;96.40;;;;;;5015246;28;20168;-71
2022/08/19 14:32:04;;;;;;;11.00;6.20;;;24.20;99.90;;;;;;5015159;28;20173;-70
2022/08/19 14:34:31;;;;;;;8.50;6.28;;;23.70;99.90;;;;;;5014999;28;20084;-70
2022/08/19 14:36:57;;;;;;;7.53;6.60;;;23.00;99.90;;;;;;5015195;28;20034;-69
2022/08/19 14:39:23;;;;;;;10.43;7.38;;;22.30;99.90;;;;;;5015427;28;20105;-70
2022/08/19 14:41:48;;;;;;;8.82;7.75;;;21.90;99.90;;;;;;5014696;28;20045;-70
2022/08/19 14:44:14;;;;;;;8.30;7.47;;;21.80;99.90;;;;;;5015068;28;20408;-70
2022/08/19 14:46:40;;;;;;;8.05;6.45;;;21.70;99.90;;;;;;5015234;28;20061;-70
2022/08/19 14:49:06;;;;;;;8.52;7.60;;;21.60;99.90;;;;;;5013464;28;20515;-70
2022/08/19 14:51:32;;;;;;;9.10;7.57;;;21.60;99.90;;;;;;5015023;28;20046;-70
2022/08/19 14:53:57;;;;;;;8.20;7.38;;;21.60;99.90;;;;;;5014906;28;20035;-70
2022/08/19 14:56:26;;;;;;;7.75;6.78;;;21.60;99.90;;;;;;5014601;28;20092;-70
2022/08/19 14:58:52;;;;;;;9.38;7.20;;;21.60;99.90;;;;;;5014783;28;20037;-70
2022/08/19 15:01:20;;;;;;;11.73;8.30;;;21.60;99.90;;;;;;5014027;28;20054;-70
2022/08/19 15:03:46;;;;;;;10.13;8.75;;;21.50;99.90;;;;;;5013094;28;20034;-70
2022/08/19 15:06:12;;;;;;;12.52;7.93;;;21.50;99.90;;;;;;5014550;28;20121;-70
2022/08/19 15:08:40;;;;;;;13.43;9.45;;;21.30;99.90;;;;;;5014200;28;20033;-70
2022/08/19 15:11:15;;;;;;;12.85;9.30;;;21.30;99.90;;;;;;5014430;28;20061;-70
2022/08/19 15:13:41;;;;;;;11.00;8.35;;;21.30;99.90;;;;;;5014832;28;20507;-70
2022/08/19 15:16:07;;;;;;;11.27;9.35;;;21.30;99.90;;;;;;5014554;28;20034;-70
2022/08/19 15:18:34;;;;;;;13.00;9.10;;;21.30;99.90;;;;;;5014940;28;20038;-70
2022/08/19 15:21:00;;;;;;;9.87;8.63;;;21.30;99.90;;;;;;5014076;28;20026;-70
2022/08/19 15:23:27;;;;;;;13.05;9.63;;;21.40;99.90;;;;;;5014440;28;20038;-70
2022/08/19 15:25:54;;;;;;;11.13;9.85;;;21.50;99.90;;;;;;5014227;28;20090;-70
2022/08/19 15:28:24;;;;;;;11.05;8.93;;;21.70;99.90;;;;;;5014508;28;20484;-70
2022/08/19 15:30:49;;;;;;;8.98;8.02;;;21.60;99.90;;;;;;5014240;28;20073;-70
2022/08/19 15:33:18;;;;;;;10.00;7.10;;;21.70;99.90;;;;;;5014365;28;20146;-70
2022/08/19 15:35:44;;;;;;;9.27;7.88;;;21.70;99.90;;;;;;5013972;28;20034;-70
2022/08/19 15:38:12;;;;;;;8.60;6.82;;;21.90;99.90;;;;;;5014471;28;20027;-70
2022/08/19 15:40:40;;;;;;;9.38;7.43;;;22.00;99.90;;;;;;5014138;28;20029;-70
2022/08/19 15:43:06;;;;;;;8.38;7.45;;;22.20;99.90;;;;;;5014095;28;20043;-70
2022/08/19 15:45:31;;;;;;;8.32;6.80;;;22.60;99.90;;;;;;5014168;28;20030;-70
2022/08/19 15:48:01;;;;;;;8.23;5.70;;;23.30;99.90;;;;;;5014263;28;20488;-70
2022/08/19 15:50:27;;;;;;;7.28;5.97;;;24.20;99.90;;;;;;5013806;28;20026;-70
2022/08/19 15:52:56;;;;;;;6.15;5.60;;;25.10;99.90;;;;;;5014157;28;20038;-70
2022/08/19 15:55:28;;;;;;;11.00;5.72;;;25.50;99.90;;;;;;5012535;28;20030;-70
2022/08/19 16:06:26;;;;;;;6.35;5.60;;;25.30;99.90;;;;;;4972546;28;20497;-70
2022/08/19 16:08:57;;;;;;;5.85;5.30;;;25.60;99.90;;;;;;4996746;28;20050;-70
2022/08/19 16:11:25;;;;;;;5.93;5.32;;;25.60;99.90;;;;;;5013859;28;20034;-70
2022/08/19 16:13:53;;;;;;;7.63;5.90;;;25.90;99.90;;;;;;5058958;23;20049;-73
2022/08/19 16:16:20;;;;;;;8.73;6.20;;;26.20;99.90;;;;;;5013172;28;20034;-73
2022/08/19 16:18:46;;;;;;;8.85;6.15;;;26.50;99.90;;;;;;5013584;28;20038;-73
2022/08/19 16:21:16;;;;;;;7.45;6.28;;;27.10;99.90;;;;;;5014811;28;20034;-73
2022/08/19 16:23:44;;;;;;;6.68;5.85;;;27.50;99.90;;;;;;5016936;28;20385;-73
2022/08/19 16:26:09;;;;;;;6.85;5.70;;;27.60;99.90;;;;;;5017109;28;20121;-73
2022/08/19 16:28:35;;;;;;;10.70;6.85;;;27.70;99.90;;;;;;5015622;28;20035;-72
2022/08/19 16:31:01;;;;;;;8.15;7.13;;;27.60;99.90;;;;;;5016786;28;20034;-72
2022/08/19 16:33:26;;;;;;;10.13;7.05;;;27.00;99.90;;;;;;5015422;28;20322;-73
2022/08/19 16:35:52;;;;;;;8.70;7.80;;;26.90;99.90;;;;;;5015058;28;20030;-73
2022/08/19 16:38:17;;;;;;;9.15;7.90;;;26.60;99.90;;;;;;5017123;28;20129;-73
2022/08/19 16:40:43;;;;;;;8.65;7.43;;;26.20;99.90;;;;;;5015486;28;20031;-73
2022/08/19 16:43:10;;;;;;;8.13;7.32;;;26.30;99.90;;;;;;5015076;28;20455;-72
2022/08/19 16:45:36;;;;;;;10.95;7.88;;;26.80;99.90;;;;;;5016625;28;20030;-78
2022/08/19 16:48:02;;;;;;;9.88;7.70;;;27.20;99.90;;;;;;5017060;28;20034;-77
2022/08/19 16:50:28;;;;;;;9.00;7.90;;;27.40;99.90;;;;;;5016876;28;20496;-74
2022/08/19 16:52:56;;;;;;;10.68;7.82;;;27.50;99.90;;;;;;5015145;28;20054;-72
2022/08/19 16:55:22;;;;;;;10.38;8.60;;;27.50;99.90;;;;;;5015483;28;20089;-72
2022/08/19 16:57:47;;;;;;;9.82;7.80;;;27.20;99.90;;;;;;5016800;28;20106;-72
2022/08/19 17:00:13;;;;;;;11.15;8.20;;;26.70;99.90;;;;;;5016882;28;20034;-72
2022/08/19 17:02:39;;;;;;;9.52;8.32;;;26.50;99.90;;;;;;5015106;28;20464;-73
2022/08/19 17:05:06;;;;;;;9.85;8.10;;;26.10;99.90;;;;;;5015989;28;20081;-72
2022/08/19 17:07:32;;;;;;;11.18;9.40;;;25.80;99.90;;;;;;5016254;28;20471;-73
2022/08/19 17:09:58;;;;;;;10.50;8.85;;;25.20;99.90;;;;;;5016239;28;20038;-73